Time;durP1;ratioP1;P1;durP2;ratioP2;P2;SDS_P1;SDS_P2;PMS_P1;PMS_P2;Temp;Humidity;BMP_temperature;BMP_pressure;BME280_temperature;BME280_humidity;BME280_pressure;Samples;Min_cycle;Max_cycle;Signal;HPM_P1;HPM_P2
2022/05/01 00:00:00;;;;;;;35.63;29.20;;;;;;;;;;5075422;28;20448;-77
2022/05/01 00:02:28;;;;;;;34.60;28.33;;;;;;;;;;5074944;28;20444;-79
2022/05/01 00:04:55;;;;;;;36.17;29.97;;;;;;;;;;5074235;28;20857;-78
2022/05/01 00:07:22;;;;;;;42.27;31.03;;;;;;;;;;5082990;28;20831;-78
2022/05/01 00:09:49;;;;;;;37.47;30.30;;;;;;;;;;5084531;28;20459;-77
2022/05/01 00:12:17;;;;;;;40.40;31.20;;;;;;;;;;5093551;28;20448;-77
2022/05/01 00:14:44;;;;;;;37.30;30.87;;;;;;;;;;5093488;28;20447;-79
2022/05/01 00:17:11;;;;;;;37.07;31.60;;;;;;;;;;5093592;28;20488;-79
2022/05/01 00:19:40;;;;;;;38.70;30.83;;;;;;;;;;5093254;28;20431;-77
2022/05/01 00:22:07;;;;;;;41.00;31.03;;;;;;;;;;5093531;28;20428;-77
2022/05/01 00:24:34;;;;;;;36.17;29.83;;;;;;;;;;5093433;28;20799;-77
2022/05/01 00:27:01;;;;;;;37.23;30.70;;;;;;;;;;5092476;28;21060;-77
2022/05/01 00:29:28;;;;;;;37.77;29.60;;;;;;;;;;5092606;28;20448;-77
2022/05/01 00:31:55;;;;;;;36.43;30.27;;;;;;;;;;5093125;28;20443;-76
2022/05/01 00:37:08;;;;;;;42.57;31.37;;;;;;;;;;5092993;28;20532;-77
2022/05/01 00:39:35;;;;;;;37.10;31.20;;;;;;;;;;5093526;28;20470;-78
2022/05/01 00:42:02;;;;;;;39.63;31.17;;;;;;;;;;5092637;28;20452;-76
2022/05/01 00:44:29;;;;;;;42.60;32.50;;;;;;;;;;5092826;28;20455;-77
2022/05/01 00:46:59;;;;;;;39.30;32.40;;;;;;;;;;5092905;28;20464;-78
2022/05/01 00:49:27;;;;;;;41.77;32.10;;;;;;;;;;5092861;28;20436;-77
2022/05/01 00:51:56;;;;;;;40.90;31.90;;;;;;;;;;5093008;28;20443;-79
2022/05/01 00:54:25;;;;;;;43.60;33.20;;;;;;;;;;5093224;28;20444;-79
2022/05/01 00:56:53;;;;;;;40.97;30.83;;;;;;;;;;5092291;28;20483;-77
2022/05/01 00:59:20;;;;;;;37.87;31.13;;;;;;;;;;5092569;28;20451;-77
2022/05/01 01:01:48;;;;;;;38.67;32.10;;;;;;;;;;5099960;28;20462;-77
2022/05/01 01:04:15;;;;;;;41.73;31.23;;;;;;;;;;5102011;28;20520;-77
2022/05/01 01:06:43;;;;;;;42.83;32.83;;;;;;;;;;5101486;28;20448;-76
2022/05/01 01:09:10;;;;;;;41.20;32.10;;;;;;;;;;5102073;28;20455;-78
2022/05/01 01:11:39;;;;;;;41.60;33.63;;;;;;;;;;5096192;28;20444;-77
2022/05/01 01:14:06;;;;;;;38.90;31.63;;;;;;;;;;5092075;28;20435;-75
2022/05/01 01:16:34;;;;;;;43.93;32.33;;;;;;;;;;5091588;28;21010;-78
2022/05/01 01:19:02;;;;;;;44.00;33.07;;;;;;;;;;5091740;28;20982;-79
2022/05/01 01:21:30;;;;;;;43.40;31.77;;;;;;;;;;5092475;28;20447;-78
2022/05/01 01:23:59;;;;;;;43.13;32.83;;;;;;;;;;5091911;28;20440;-77
2022/05/01 01:26:26;;;;;;;46.27;33.33;;;;;;;;;;5091634;28;20574;-78
2022/05/01 01:28:54;;;;;;;39.40;30.67;;;;;;;;;;5092491;28;20452;-78
2022/05/01 01:31:41;;;;;;;48.47;33.83;;;;;;;;;;5092174;28;20450;-77
2022/05/01 01:34:10;;;;;;;40.97;31.80;;;;;;;;;;5091813;28;20415;-78
2022/05/01 01:36:39;;;;;;;42.20;32.17;;;;;;;;;;5091786;28;20467;-77
2022/05/01 01:39:06;;;;;;;40.97;31.40;;;;;;;;;;5091422;28;20954;-76
2022/05/01 01:41:34;;;;;;;39.70;31.33;;;;;;;;;;5092255;28;20451;-79
2022/05/01 01:44:01;;;;;;;40.90;30.37;;;;;;;;;;5091621;28;20448;-78
2022/05/01 01:46:28;;;;;;;46.97;32.50;;;;;;;;;;5091461;28;20463;-76
2022/05/01 01:48:55;;;;;;;43.83;33.20;;;;;;;;;;5091939;28;20472;-79
2022/05/01 01:51:22;;;;;;;41.63;31.43;;;;;;;;;;5092132;28;20454;-77
2022/05/01 01:53:52;;;;;;;40.17;31.70;;;;;;;;;;5091415;28;20932;-78
2022/05/01 01:56:19;;;;;;;40.80;31.37;;;;;;;;;;5091488;28;20467;-75
2022/05/01 01:58:47;;;;;;;41.83;31.70;;;;;;;;;;5091747;28;20484;-77
2022/05/01 02:01:14;;;;;;;44.13;32.63;;;;;;;;;;5093279;28;20572;-76
2022/05/01 02:03:41;;;;;;;42.00;32.87;;;;;;;;;;5092372;28;20459;-78
2022/05/01 02:06:09;;;;;;;42.60;31.20;;;;;;;;;;5091272;28;20467;-79
2022/05/01 02:08:36;;;;;;;40.77;32.00;;;;;;;;;;5091453;28;20476;-76
2022/05/01 02:11:05;;;;;;;41.20;30.87;;;;;;;;;;5091178;28;20459;-76
2022/05/01 02:13:32;;;;;;;40.50;30.17;;;;;;;;;;5090876;28;20509;-77
2022/05/01 02:15:59;;;;;;;40.67;30.37;;;;;;;;;;5092501;28;20553;-77
2022/05/01 02:18:26;;;;;;;43.37;31.30;;;;;;;;;;5091306;28;20475;-79
2022/05/01 02:23:38;;;;;;;37.43;31.03;;;;;;;;;;5092206;28;20791;-76
2022/05/01 02:26:06;;;;;;;35.70;28.53;;;;;;;;;;5092899;28;20467;-77
2022/05/01 02:28:33;;;;;;;34.70;29.67;;;;;;;;;;5092003;28;20455;-76
2022/05/01 02:31:01;;;;;;;36.83;29.07;;;;;;;;;;5090748;28;20935;-78
2022/05/01 02:33:28;;;;;;;35.33;30.13;;;;;;;;;;5090621;28;20939;-76
2022/05/01 02:35:55;;;;;;;39.37;29.77;;;;;;;;;;5090772;28;20464;-77
2022/05/01 02:38:22;;;;;;;34.17;27.53;;;;;;;;;;5091016;28;20476;-77
2022/05/01 02:40:49;;;;;;;41.40;31.70;;;;;;;;;;5091741;28;20444;-77
2022/05/01 02:43:17;;;;;;;38.17;29.30;;;;;;;;;;5091429;28;20487;-76
2022/05/01 02:45:44;;;;;;;40.37;30.07;;;;;;;;;;5091711;28;20481;-78
2022/05/01 02:48:11;;;;;;;36.07;29.30;;;;;;;;;;5090684;28;20463;-78
2022/05/01 02:50:39;;;;;;;40.20;29.57;;;;;;;;;;5090143;28;20443;-80
2022/05/01 02:53:06;;;;;;;37.70;29.47;;;;;;;;;;5091579;28;20467;-77
2022/05/01 02:55:33;;;;;;;37.37;28.03;;;;;;;;;;5090313;28;20508;-78
2022/05/01 02:58:02;;;;;;;38.00;30.30;;;;;;;;;;5090792;28;20475;-78
2022/05/01 03:00:30;;;;;;;37.37;30.27;;;;;;;;;;5090638;28;20451;-76
2022/05/01 03:02:57;;;;;;;36.70;29.50;;;;;;;;;;5090299;28;20463;-78
2022/05/01 03:05:25;;;;;;;34.40;28.07;;;;;;;;;;5090927;28;20448;-78
2022/05/01 03:07:55;;;;;;;38.63;29.57;;;;;;;;;;5090712;28;20608;-77
2022/05/01 03:10:22;;;;;;;43.17;29.97;;;;;;;;;;5095670;28;20463;-75
2022/05/01 03:12:49;;;;;;;38.93;29.67;;;;;;;;;;5099640;28;20439;-77
2022/05/01 03:15:16;;;;;;;38.20;29.50;;;;;;;;;;5094278;28;20476;-78
2022/05/01 03:23:14;;;;;;;42.47;30.30;;;;;;;;;;5090245;28;20449;-77
2022/05/01 03:25:41;;;;;;;48.23;31.67;;;;;;;;;;5091161;28;20440;-78
2022/05/01 03:28:08;;;;;;;40.70;31.60;;;;;;;;;;5091629;28;20544;-76
2022/05/01 03:30:36;;;;;;;39.33;29.13;;;;;;;;;;5091500;28;20436;-77
2022/05/01 03:33:05;;;;;;;41.10;30.57;;;;;;;;;;5090889;28;20911;-77
2022/05/01 03:35:35;;;;;;;41.33;30.20;;;;;;;;;;5091557;28;20524;-78
2022/05/01 03:38:02;;;;;;;38.43;30.50;;;;;;;;;;5091572;28;20487;-78
2022/05/01 03:40:29;;;;;;;40.87;32.20;;;;;;;;;;5090101;28;21261;-77
2022/05/01 03:42:56;;;;;;;43.33;31.40;;;;;;;;;;5090092;28;20456;-76
2022/05/01 03:45:23;;;;;;;43.47;30.83;;;;;;;;;;5090022;28;20779;-78
2022/05/01 03:47:50;;;;;;;39.83;30.70;;;;;;;;;;5090113;28;20704;-76
2022/05/01 03:50:19;;;;;;;39.27;30.43;;;;;;;;;;5090012;28;20456;-78
2022/05/01 03:52:46;;;;;;;41.30;30.67;;;;;;;;;;5089761;28;20451;-78
2022/05/01 03:55:13;;;;;;;38.80;30.87;;;;;;;;;;5090067;28;20471;-77
2022/05/01 03:57:41;;;;;;;39.80;31.00;;;;;;;;;;5089915;28;20872;-77
2022/05/01 04:00:10;;;;;;;39.80;31.30;;;;;;;;;;5090043;28;20447;-77
2022/05/01 04:02:42;;;;;;;39.47;31.13;;;;;;;;;;5091234;28;20930;-78
2022/05/01 04:05:09;;;;;;;38.20;29.70;;;;;;;;;;5093713;28;20438;-78
2022/05/01 04:07:38;;;;;;;42.63;29.60;;;;;;;;;;5093942;28;20466;-78
2022/05/01 04:10:05;;;;;;;36.60;29.70;;;;;;;;;;5093749;28;20830;-76
2022/05/01 04:12:36;;;;;;;41.63;31.13;;;;;;;;;;5093330;28;20436;-79
2022/05/01 04:15:07;;;;;;;38.33;28.80;;;;;;;;;;5093921;28;20799;-77
2022/05/01 04:17:34;;;;;;;36.50;29.80;;;;;;;;;;5093604;28;20479;-78
2022/05/01 04:20:02;;;;;;;40.50;29.40;;;;;;;;;;5093598;28;20536;-77
2022/05/01 04:22:30;;;;;;;39.40;29.83;;;;;;;;;;5093041;28;20961;-79
2022/05/01 04:24:58;;;;;;;37.73;30.83;;;;;;;;;;5093504;28;20926;-77
2022/05/01 04:27:25;;;;;;;35.50;28.87;;;;;;;;;;5099828;28;20463;-76
2022/05/01 04:29:52;;;;;;;36.57;27.73;;;;;;;;;;5093881;28;20457;-78
2022/05/01 04:32:21;;;;;;;43.07;29.83;;;;;;;;;;5082411;28;20480;-79
2022/05/01 04:34:48;;;;;;;42.83;30.40;;;;;;;;;;5072861;28;20811;-77
2022/05/01 04:37:15;;;;;;;36.83;29.77;;;;;;;;;;5072650;28;20555;-78
2022/05/01 04:39:42;;;;;;;39.00;30.40;;;;;;;;;;5072729;28;20564;-78
2022/05/01 04:42:11;;;;;;;40.33;30.80;;;;;;;;;;5073202;28;20457;-77
2022/05/01 04:44:38;;;;;;;34.63;29.63;;;;;;;;;;5072986;28;20452;-77
2022/05/01 04:47:05;;;;;;;39.00;30.67;;;;;;;;;;5073176;28;20889;-77
2022/05/01 04:49:32;;;;;;;35.20;28.47;;;;;;;;;;5081497;28;20440;-78
2022/05/01 04:52:00;;;;;;;38.90;30.87;;;;;;;;;;5092901;28;20447;-77
2022/05/01 04:54:27;;;;;;;36.33;29.73;;;;;;;;;;5092543;28;20462;-75
2022/05/01 04:57:09;;;;;;;41.90;29.90;;;;;;;;;;5092344;28;20950;-74
2022/05/01 04:59:38;;;;;;;39.90;30.40;;;;;;;;;;5092672;28;20547;-77
2022/05/01 05:02:05;;;;;;;34.73;28.73;;;;;;;;;;5092546;28;20455;-75
2022/05/01 05:04:33;;;;;;;42.17;30.77;;;;;;;;;;5094393;28;20444;-78
2022/05/01 05:07:00;;;;;;;34.93;29.60;;;;;;;;;;5098045;28;20470;-77
2022/05/01 05:12:11;;;;;;;40.97;30.00;;;;;;;;;;5092850;28;20399;-78
2022/05/01 05:14:40;;;;;;;36.93;30.43;;;;;;;;;;5091835;28;20452;-78
2022/05/01 05:17:09;;;;;;;39.47;31.27;;;;;;;;;;5092707;28;20470;-77
2022/05/01 05:19:37;;;;;;;41.23;31.60;;;;;;;;;;5096992;28;20479;-78
2022/05/01 05:22:04;;;;;;;34.77;28.80;;;;;;;;;;5099861;28;20448;-77
2022/05/01 05:24:31;;;;;;;42.67;30.50;;;;;;;;;;5092228;28;20946;-77
2022/05/01 05:26:58;;;;;;;36.43;29.33;;;;;;;;;;5097137;28;20456;-77
2022/05/01 05:29:25;;;;;;;39.60;30.40;;;;;;;;;;5094963;28;20436;-77
2022/05/01 05:31:54;;;;;;;43.70;30.57;;;;;;;;;;5092148;28;20442;-78
2022/05/01 05:34:21;;;;;;;35.87;28.00;;;;;;;;;;5092099;28;20447;-75
2022/05/01 05:36:48;;;;;;;38.43;29.80;;;;;;;;;;5091830;28;20460;-76
2022/05/01 05:39:15;;;;;;;36.10;28.70;;;;;;;;;;5091640;28;21270;-77
2022/05/01 05:41:42;;;;;;;37.83;28.67;;;;;;;;;;5092088;28;20470;-78
2022/05/01 05:44:09;;;;;;;34.77;29.43;;;;;;;;;;5091785;28;20530;-77
2022/05/01 05:46:37;;;;;;;37.33;28.90;;;;;;;;;;5092014;28;20496;-77
2022/05/01 05:49:06;;;;;;;37.00;29.60;;;;;;;;;;5091759;28;20463;-78
2022/05/01 05:51:33;;;;;;;36.37;28.50;;;;;;;;;;5091611;28;20444;-78
2022/05/01 05:54:00;;;;;;;34.10;28.07;;;;;;;;;;5091542;28;20440;-77
2022/05/01 05:56:27;;;;;;;35.77;30.00;;;;;;;;;;5091548;28;20467;-78
2022/05/01 05:58:56;;;;;;;34.30;29.03;;;;;;;;;;5091592;28;20479;-79
2022/05/01 06:01:23;;;;;;;35.30;29.30;;;;;;;;;;5091398;28;20464;-77
2022/05/01 06:03:50;;;;;;;35.93;27.33;;;;;;;;;;5091706;28;20443;-78
2022/05/01 06:06:19;;;;;;;37.13;28.83;;;;;;;;;;5091268;28;20467;-77
2022/05/01 06:08:46;;;;;;;36.13;29.67;;;;;;;;;;5091666;28;20443;-76
2022/05/01 06:11:13;;;;;;;34.40;28.67;;;;;;;;;;5091359;28;21049;-79
2022/05/01 06:13:40;;;;;;;36.73;28.67;;;;;;;;;;5092025;28;20463;-76
2022/05/01 06:16:07;;;;;;;33.20;26.70;;;;;;;;;;5090989;28;20460;-77
2022/05/01 06:18:34;;;;;;;33.27;27.73;;;;;;;;;;5090789;28;20490;-78
2022/05/01 06:21:02;;;;;;;33.57;27.20;;;;;;;;;;5091560;28;20449;-76
2022/05/01 06:23:30;;;;;;;33.43;28.53;;;;;;;;;;5090867;28;20451;-77
2022/05/01 06:25:57;;;;;;;32.93;27.67;;;;;;;;;;5090994;28;20460;-77
2022/05/01 06:28:24;;;;;;;32.23;26.90;;;;;;;;;;5091727;28;20443;-77
2022/05/01 06:30:53;;;;;;;33.40;27.93;;;;;;;;;;5091598;28;20454;-78
2022/05/01 06:33:23;;;;;;;36.03;28.17;;;;;;;;;;5091695;28;20455;-79
2022/05/01 06:35:52;;;;;;;33.30;27.67;;;;;;;;;;5091459;28;20443;-78
2022/05/01 06:38:19;;;;;;;32.87;26.90;;;;;;;;;;5091060;28;20480;-77
2022/05/01 06:40:48;;;;;;;36.93;27.83;;;;;;;;;;5092077;28;20454;-78
2022/05/01 06:43:15;;;;;;;33.37;27.77;;;;;;;;;;5100589;28;20454;-75
2022/05/01 06:45:43;;;;;;;30.70;26.50;;;;;;;;;;5100991;28;20447;-77
2022/05/01 06:48:10;;;;;;;33.60;27.30;;;;;;;;;;5092824;28;20448;-78
2022/05/01 06:50:37;;;;;;;37.13;28.00;;;;;;;;;;5092722;28;20443;-77
2022/05/01 06:53:05;;;;;;;31.30;26.70;;;;;;;;;;5091176;28;20455;-79
2022/05/01 06:55:32;;;;;;;32.33;25.53;;;;;;;;;;5091103;28;20950;-76
2022/05/01 06:58:00;;;;;;;29.27;25.90;;;;;;;;;;5093889;28;20448;-75
2022/05/01 07:00:27;;;;;;;35.10;28.23;;;;;;;;;;5093382;28;20482;-78
2022/05/01 07:02:55;;;;;;;30.50;26.13;;;;;;;;;;5090909;28;20446;-78
2022/05/01 07:05:22;;;;;;;29.37;23.73;;;;;;;;;;5091411;28;20447;-76
2022/05/01 07:07:50;;;;;;;31.87;26.07;;;;;;;;;;5098234;28;20471;-78
2022/05/01 07:10:18;;;;;;;30.23;25.63;;;;;;;;;;5092589;28;20460;-78
2022/05/01 07:12:45;;;;;;;28.77;24.80;;;;;;;;;;5091775;28;20448;-78
2022/05/01 07:15:13;;;;;;;32.00;26.20;;;;;;;;;;5084493;28;20538;-78
2022/05/01 07:17:40;;;;;;;28.90;24.50;;;;;;;;;;5078462;28;20475;-76
2022/05/01 07:20:08;;;;;;;29.57;25.17;;;;;;;;;;5076548;28;21029;-80
2022/05/01 07:22:35;;;;;;;29.20;24.93;;;;;;;;;;5091382;28;20435;-77
2022/05/01 07:25:02;;;;;;;28.57;25.43;;;;;;;;;;5091258;28;20442;-79
2022/05/01 07:27:29;;;;;;;26.87;23.97;;;;;;;;;;5091264;28;20475;-77
2022/05/01 07:29:56;;;;;;;29.70;25.67;;;;;;;;;;5092060;28;20432;-78
2022/05/01 07:32:25;;;;;;;27.97;24.73;;;;;;;;;;5092295;28;20447;-77
2022/05/01 07:34:52;;;;;;;26.10;23.10;;;;;;;;;;5091173;28;20440;-77
2022/05/01 07:37:22;;;;;;;27.57;24.67;;;;;;;;;;5092882;28;20520;-78
2022/05/01 07:39:49;;;;;;;27.00;23.50;;;;;;;;;;5095936;28;20499;-79
2022/05/01 07:42:16;;;;;;;26.53;23.73;;;;;;;;;;5103287;28;20512;-78
2022/05/01 07:44:43;;;;;;;25.97;22.80;;;;;;;;;;5103486;28;20461;-81
2022/05/01 07:47:10;;;;;;;27.83;24.10;;;;;;;;;;5103589;28;20467;-79
2022/05/01 07:49:38;;;;;;;26.13;23.20;;;;;;;;;;5103458;28;20451;-76
2022/05/01 07:52:06;;;;;;;24.63;22.03;;;;;;;;;;5097286;28;20450;-80
2022/05/01 07:54:33;;;;;;;27.17;23.53;;;;;;;;;;5094692;28;20435;-79
2022/05/01 07:57:00;;;;;;;25.53;22.60;;;;;;;;;;5095212;28;20970;-78
2022/05/01 07:59:27;;;;;;;25.53;22.33;;;;;;;;;;5093714;28;20475;-75
2022/05/01 08:01:54;;;;;;;24.17;21.57;;;;;;;;;;5095365;28;20497;-76
2022/05/01 08:04:30;;;;;;;25.47;22.67;;;;;;;;;;5093714;28;20447;-77
2022/05/01 08:06:59;;;;;;;26.60;22.80;;;;;;;;;;5093833;28;20487;-78
2022/05/01 08:09:27;;;;;;;26.13;23.40;;;;;;;;;;5096723;28;20444;-79
2022/05/01 08:11:54;;;;;;;24.90;22.37;;;;;;;;;;5097674;28;20420;-77
2022/05/01 08:14:21;;;;;;;26.90;23.13;;;;;;;;;;5094021;28;20450;-79
2022/05/01 08:16:49;;;;;;;25.40;22.00;;;;;;;;;;5094246;28;20468;-78
2022/05/01 08:22:02;;;;;;;23.47;20.73;;;;;;;;;;5093334;28;20392;-78
2022/05/01 08:24:29;;;;;;;23.40;20.97;;;;;;;;;;5094492;28;20444;-76
2022/05/01 08:26:56;;;;;;;22.43;20.20;;;;;;;;;;5097845;28;20456;-78
2022/05/01 08:29:23;;;;;;;23.10;20.70;;;;;;;;;;5095265;28;20446;-79
2022/05/01 08:31:50;;;;;;;24.53;21.93;;;;;;;;;;5096622;28;20443;-76
2022/05/01 08:34:18;;;;;;;23.23;20.83;;;;;;;;;;5095162;28;20451;-78
2022/05/01 08:36:46;;;;;;;23.10;20.80;;;;;;;;;;5094347;28;20520;-78
2022/05/01 08:39:14;;;;;;;22.40;20.13;;;;;;;;;;5094087;28;20526;-78
2022/05/01 08:41:42;;;;;;;22.07;19.90;;;;;;;;;;5093496;28;20444;-78
2022/05/01 08:44:13;;;;;;;23.50;20.93;;;;;;;;;;5093314;28;20452;-79
2022/05/01 08:46:42;;;;;;;21.70;19.60;;;;;;;;;;5093139;28;20471;-79
2022/05/01 08:49:10;;;;;;;21.00;18.87;;;;;;;;;;5092073;28;20538;-79
2022/05/01 08:51:38;;;;;;;23.70;21.20;;;;;;;;;;5092547;28;21044;-77
2022/05/01 08:54:06;;;;;;;23.20;20.90;;;;;;;;;;5093303;28;20447;-80
2022/05/01 08:56:36;;;;;;;23.30;20.50;;;;;;;;;;5093214;28;20471;-78
2022/05/01 08:59:04;;;;;;;22.27;19.33;;;;;;;;;;5092370;28;20877;-78
2022/05/01 09:01:31;;;;;;;21.83;19.47;;;;;;;;;;5093097;28;20812;-78
2022/05/01 09:03:58;;;;;;;23.07;20.70;;;;;;;;;;5093105;28;20455;-79
2022/05/01 09:06:26;;;;;;;21.00;18.90;;;;;;;;;;5091927;28;20471;-79
2022/05/01 09:08:53;;;;;;;22.20;20.10;;;;;;;;;;5093774;28;20444;-79
2022/05/01 09:14:06;;;;;;;19.50;17.50;;;;;;;;;;5076582;28;20601;-77
2022/05/01 09:16:36;;;;;;;20.90;18.50;;;;;;;;;;5091712;28;20517;-79
2022/05/01 09:19:03;;;;;;;20.73;18.70;;;;;;;;;;5092221;28;20500;-78
2022/05/01 09:21:48;;;;;;;19.70;17.70;;;;;;;;;;5092028;28;20451;-78
2022/05/01 09:24:15;;;;;;;20.57;18.40;;;;;;;;;;5092310;28;20473;-80
2022/05/01 09:26:42;;;;;;;18.97;17.03;;;;;;;;;;5092145;28;20479;-78
2022/05/01 09:29:22;;;;;;;18.97;17.17;;;;;;;;;;5092081;28;20448;-78
2022/05/01 09:31:50;;;;;;;18.83;17.10;;;;;;;;;;5092596;28;20536;-77
2022/05/01 09:34:20;;;;;;;18.30;16.53;;;;;;;;;;5090765;28;20807;-78
2022/05/01 09:36:48;;;;;;;17.97;16.17;;;;;;;;;;5091958;28;20471;-80
2022/05/01 09:39:19;;;;;;;18.13;16.30;;;;;;;;;;5091869;28;20487;-78
2022/05/01 09:41:46;;;;;;;14.37;12.93;;;;;;;;;;5092044;28;20936;-78
2022/05/01 09:44:15;;;;;;;17.50;15.00;;;;;;;;;;5091427;28;20458;-79
2022/05/01 09:46:44;;;;;;;18.47;16.77;;;;;;;;;;5075554;28;21006;-79
2022/05/01 09:49:13;;;;;;;17.00;15.50;;;;;;;;;;5092139;28;20451;-78
2022/05/01 09:51:42;;;;;;;17.30;15.57;;;;;;;;;;5092685;28;20475;-77
2022/05/01 09:54:09;;;;;;;16.00;14.50;;;;;;;;;;5106750;28;20447;-77
2022/05/01 09:56:46;;;;;;;16.40;14.80;;;;;;;;;;5093006;28;20443;-77
2022/05/01 09:59:14;;;;;;;17.05;15.50;;;;;;;;;;5091985;28;20440;-78
2022/05/01 10:01:42;;;;;;;16.97;15.27;;;;;;;;;;5091403;28;20194;-77
2022/05/01 10:04:09;;;;;;;18.30;16.50;;;;;;;;;;5083022;28;20443;-78
2022/05/01 10:06:36;;;;;;;18.70;16.90;;;;;;;;;;5082731;28;20453;-77
2022/05/01 10:09:04;;;;;;;17.17;15.43;;;;;;;;;;5076703;28;20456;-78
2022/05/01 10:11:31;;;;;;;16.70;15.00;;;;;;;;;;5079980;28;20451;-78
2022/05/01 10:13:58;;;;;;;16.63;15.10;;;;;;;;;;5090677;28;21170;-78
2022/05/01 10:16:27;;;;;;;16.67;15.07;;;;;;;;;;5091089;28;21014;-78
2022/05/01 10:18:54;;;;;;;17.07;15.47;;;;;;;;;;5092166;28;20447;-78
2022/05/01 10:21:23;;;;;;;20.03;14.97;;;;;;;;;;5095875;28;20505;-76
2022/05/01 10:23:50;;;;;;;16.07;14.47;;;;;;;;;;5095483;28;20440;-77
2022/05/01 10:26:18;;;;;;;16.10;14.60;;;;;;;;;;5091464;28;20459;-78
2022/05/01 10:29:00;;;;;;;16.53;15.00;;;;;;;;;;5091644;28;20447;-78
2022/05/01 10:34:29;;;;;;;15.20;13.70;;;;;;;;;;5091050;28;20399;-78
2022/05/01 10:37:05;;;;;;;14.47;13.17;;;;;;;;;;5091142;28;20491;-77
2022/05/01 10:39:35;;;;;;;15.43;13.90;;;;;;;;;;5091025;28;20456;-76
2022/05/01 10:42:02;;;;;;;15.17;13.77;;;;;;;;;;5090994;28;20443;-77
2022/05/01 10:44:30;;;;;;;13.83;12.57;;;;;;;;;;5091596;28;20444;-77
2022/05/01 10:47:06;;;;;;;15.17;13.83;;;;;;;;;;5091232;28;20520;-76
2022/05/01 10:49:34;;;;;;;16.33;14.83;;;;;;;;;;5090614;28;20883;-78
2022/05/01 10:52:15;;;;;;;17.20;15.33;;;;;;;;;;5090950;28;20942;-77
2022/05/01 10:54:42;;;;;;;16.80;15.13;;;;;;;;;;5091063;28;20435;-78
2022/05/01 10:57:11;;;;;;;19.13;14.40;;;;;;;;;;5091412;28;20460;-78
2022/05/01 10:59:39;;;;;;;17.70;16.10;;;;;;;;;;5089503;28;20526;-79
2022/05/01 11:02:19;;;;;;;16.50;15.10;;;;;;;;;;5090949;28;20464;-78
2022/05/01 11:04:47;;;;;;;16.97;15.47;;;;;;;;;;5090767;28;20865;-78
2022/05/01 11:07:15;;;;;;;17.20;15.70;;;;;;;;;;5090473;28;20444;-77
2022/05/01 11:09:44;;;;;;;13.40;12.30;;;;;;;;;;5090684;28;20212;-78
2022/05/01 11:12:13;;;;;;;14.30;12.87;;;;;;;;;;5092772;28;20724;-77
2022/05/01 11:14:41;;;;;;;16.00;14.40;;;;;;;;;;5094050;28;20456;-78
2022/05/01 11:17:12;;;;;;;14.77;13.57;;;;;;;;;;5089648;28;20928;-78
2022/05/01 11:19:45;;;;;;;13.77;12.57;;;;;;;;;;5095559;28;20276;-78
2022/05/01 11:22:13;;;;;;;13.80;12.60;;;;;;;;;;5095424;28;20459;-78
2022/05/01 11:24:43;;;;;;;14.43;12.93;;;;;;;;;;5102642;28;20439;-78
2022/05/01 11:27:14;;;;;;;14.73;13.43;;;;;;;;;;5106818;28;20447;-79
2022/05/01 11:30:03;;;;;;;14.17;12.97;;;;;;;;;;5099239;28;20237;-80
2022/05/01 11:32:43;;;;;;;15.05;13.85;;;;;;;;;;5097916;28;20436;-77
2022/05/01 11:35:11;;;;;;;14.60;13.40;;;;;;;;;;5098779;28;20189;-77
2022/05/01 11:37:47;;;;;;;13.10;11.90;;;;;;;;;;5098980;28;20814;-79
2022/05/01 11:40:26;;;;;;;14.80;13.50;;;;;;;;;;5099789;28;20459;-79
2022/05/01 11:42:53;;;;;;;14.73;13.43;;;;;;;;;;5101950;28;20444;-79
2022/05/01 11:45:23;;;;;;;13.53;12.53;;;;;;;;;;5100212;28;20446;-78
2022/05/01 11:47:55;;;;;;;13.83;12.57;;;;;;;;;;5099739;28;20520;-78
2022/05/01 11:50:24;;;;;;;14.07;12.77;;;;;;;;;;5100715;28;20439;-78
2022/05/01 11:52:53;;;;;;;13.40;12.20;;;;;;;;;;5103929;28;20452;-77
2022/05/01 11:55:21;;;;;;;14.70;13.50;;;;;;;;;;5098038;28;20527;-78
2022/05/01 12:03:32;;;;;;;13.77;12.57;;;;;;;;;;5096399;28;20407;-78
2022/05/01 12:05:59;;;;;;;14.13;12.93;;;;;;;;;;5095844;28;20475;-78
2022/05/01 12:08:26;;;;;;;13.17;11.97;;;;;;;;;;5094829;28;20783;-78
2022/05/01 12:10:55;;;;;;;13.43;12.13;;;;;;;;;;5094681;28;20531;-78
2022/05/01 12:13:23;;;;;;;15.43;14.13;;;;;;;;;;5093460;28;20434;-79
2022/05/01 12:15:51;;;;;;;16.07;14.47;;;;;;;;;;5094402;28;20700;-78
2022/05/01 12:18:18;;;;;;;15.88;14.48;;;;;;;;;;5093269;28;20435;-78
2022/05/01 12:20:47;;;;;;;15.40;14.20;;;;;;;;;;5091676;28;20928;-77
2022/05/01 12:23:15;;;;;;;14.53;13.23;;;;;;;;;;5091811;28;20345;-77
2022/05/01 12:25:44;;;;;;;15.60;14.20;;;;;;;;;;5092907;28;20444;-78
2022/05/01 12:28:11;;;;;;;13.93;12.80;;;;;;;;;;5089251;28;20680;-79
2022/05/01 12:30:38;;;;;;;15.27;13.80;;;;;;;;;;5093249;28;20436;-78
2022/05/01 12:33:05;;;;;;;14.77;13.27;;;;;;;;;;5096006;28;20439;-79
2022/05/01 12:35:47;;;;;;;14.75;13.45;;;;;;;;;;5113670;28;20435;-79
2022/05/01 12:38:17;;;;;;;15.23;13.90;;;;;;;;;;5112828;28;20902;-78
2022/05/01 12:46:24;;;;;;;14.30;12.90;;;;;;;;;;5113882;28;20698;-78
2022/05/01 12:48:51;;;;;;;13.43;12.23;;;;;;;;;;5105782;27;20475;-78
2022/05/01 12:51:18;;;;;;;14.63;13.23;;;;;;;;;;5100684;28;20439;-78
2022/05/01 12:53:47;;;;;;;13.73;12.53;;;;;;;;;;5106327;28;20193;-78
2022/05/01 12:56:18;;;;;;;14.00;12.80;;;;;;;;;;5090615;28;20474;-77
2022/05/01 12:58:45;;;;;;;13.93;12.63;;;;;;;;;;5093199;28;20448;-78
2022/05/01 13:01:23;;;;;;;13.10;11.87;;;;;;;;;;5092888;28;20484;-79
2022/05/01 13:03:50;;;;;;;14.07;12.77;;;;;;;;;;5093064;28;20428;-78
2022/05/01 13:06:18;;;;;;;12.60;11.60;;;;;;;;;;5092521;28;20939;-79
2022/05/01 13:08:47;;;;;;;11.90;10.90;;;;;;;;;;5091028;28;20475;-78
2022/05/01 13:11:15;;;;;;;14.30;13.02;;;;;;;;;;5091898;28;20839;-78
2022/05/01 13:13:44;;;;;;;12.23;11.23;;;;;;;;;;5092345;28;20680;-78
2022/05/01 13:16:11;;;;;;;13.10;11.73;;;;;;;;;;5092030;28;20455;-77
2022/05/01 13:18:41;;;;;;;12.27;11.27;;;;;;;;;;5092610;28;20504;-78
2022/05/01 13:21:08;;;;;;;11.10;10.10;;;;;;;;;;5092364;28;20487;-78
2022/05/01 13:23:35;;;;;;;12.10;11.10;;;;;;;;;;5091744;28;20440;-77
2022/05/01 13:26:04;;;;;;;11.30;10.07;;;;;;;;;;5092506;28;20467;-78
2022/05/01 13:28:31;;;;;;;11.37;10.30;;;;;;;;;;5092504;28;20455;-77
2022/05/01 13:30:58;;;;;;;10.90;10.00;;;;;;;;;;5092607;28;20440;-78
2022/05/01 13:33:25;;;;;;;10.93;10.03;;;;;;;;;;5092240;28;20976;-78
2022/05/01 13:35:52;;;;;;;9.50;8.80;;;;;;;;;;5091178;28;20443;-78
2022/05/01 13:38:19;;;;;;;10.03;9.13;;;;;;;;;;5092120;28;20791;-78
2022/05/01 13:46:17;;;;;;;10.07;9.17;;;;;;;;;;5085834;28;20506;-78
2022/05/01 13:48:45;;;;;;;10.23;9.33;;;;;;;;;;5080524;28;20451;-80
2022/05/01 13:51:14;;;;;;;9.77;9.03;;;;;;;;;;5071710;28;20847;-78
2022/05/01 13:53:42;;;;;;;11.50;10.43;;;;;;;;;;5071356;28;20448;-78
2022/05/01 13:56:11;;;;;;;11.10;10.17;;;;;;;;;;5071852;28;20468;-78
2022/05/01 13:58:39;;;;;;;11.00;10.00;;;;;;;;;;5072109;28;20482;-78
2022/05/01 14:01:07;;;;;;;9.87;9.13;;;;;;;;;;5071164;28;20489;-78
2022/05/01 14:03:34;;;;;;;11.30;10.30;;;;;;;;;;5071466;28;20444;-78
2022/05/01 14:06:01;;;;;;;9.90;9.07;;;;;;;;;;5071192;28;20859;-77
2022/05/01 14:08:28;;;;;;;12.27;11.33;;;;;;;;;;5071475;28;20449;-77
2022/05/01 14:10:55;;;;;;;10.90;10.00;;;;;;;;;;5071296;28;20452;-77
2022/05/01 14:13:22;;;;;;;13.52;12.23;;;;;;;;;;5070957;28;20450;-77
2022/05/01 14:15:50;;;;;;;12.90;11.57;;;;;;;;;;5071273;28;20200;-77
2022/05/01 14:18:20;;;;;;;12.67;11.57;;;;;;;;;;5071203;28;20453;-77
2022/05/01 14:20:47;;;;;;;13.50;12.30;;;;;;;;;;5074008;28;20469;-78
2022/05/01 14:23:15;;;;;;;14.63;13.30;;;;;;;;;;5076656;28;20458;-79
2022/05/01 14:25:42;;;;;;;14.07;12.77;;;;;;;;;;5096788;28;20197;-78
2022/05/01 14:28:09;;;;;;;14.80;13.43;;;;;;;;;;5100697;28;20440;-79
2022/05/01 14:30:36;;;;;;;14.27;13.03;;;;;;;;;;5098697;28;20505;-77
2022/05/01 14:33:16;;;;;;;15.03;13.43;;;;;;;;;;5096290;28;20455;-78
2022/05/01 14:35:45;;;;;;;14.43;13.10;;;;;;;;;;5095835;28;20443;-79
2022/05/01 14:38:17;;;;;;;13.57;12.47;;;;;;;;;;5091575;28;20480;-78
2022/05/01 14:40:48;;;;;;;12.07;10.80;;;;;;;;;;5092694;28;21013;-78
2022/05/01 14:43:15;;;;;;;12.20;11.10;;;;;;;;;;5093821;28;20919;-80
2022/05/01 14:45:48;;;;;;;12.30;11.20;;;;;;;;;;5096779;28;20443;-78
2022/05/01 14:48:19;;;;;;;11.93;10.73;;;;;;;;;;5098092;28;20456;-78
2022/05/01 14:50:47;;;;;;;10.83;9.83;;;;;;;;;;5095814;28;20439;-78
2022/05/01 14:53:14;;;;;;;11.23;10.20;;;;;;;;;;5094404;28;20961;-78
2022/05/01 14:55:42;;;;;;;11.77;10.80;;;;;;;;;;5092028;28;20432;-78
2022/05/01 15:06:17;;;;;;;13.27;12.00;;;;;;;;;;5092612;28;20452;-79
2022/05/01 15:06:31;;;;;;;11.40;10.47;;;;;;;;;;5090660;28;20443;-78
2022/05/01 15:09:02;;;;;;;12.03;10.90;;;;;;;;;;5091623;28;20440;-78